createdAt,value
2023-01-17T00:02:44.293Z,-1.22
2023-01-17T00:05:47.933Z,-1.25
2023-01-17T00:08:51.938Z,-1.26
2023-01-17T00:11:37.146Z,-1.33
2023-01-17T00:14:22.595Z,-1.36
2023-01-17T00:17:07.849Z,-1.50
2023-01-17T00:20:11.534Z,-1.51
2023-01-17T00:23:23.039Z,-1.46
2023-01-17T00:26:19.263Z,-1.54
2023-01-17T00:29:04.346Z,-1.54
2023-01-17T00:31:49.319Z,-1.52
2023-01-17T00:34:34.318Z,-1.54
2023-01-17T00:37:19.381Z,-1.56
2023-01-17T00:40:04.706Z,-1.69
2023-01-17T00:42:49.704Z,-1.67
2023-01-17T00:45:53.467Z,-1.63
2023-01-17T00:48:58.453Z,-1.62
2023-01-17T00:52:02.550Z,-1.67
2023-01-17T00:55:06.457Z,-1.79
2023-01-17T00:58:10.250Z,-1.67
2023-01-17T01:01:14.026Z,-1.73
2023-01-17T01:04:18.024Z,-1.77
2023-01-17T01:07:21.884Z,-1.86
2023-01-17T01:10:26.239Z,-1.82
2023-01-17T01:13:30.311Z,-1.92
2023-01-17T01:16:34.779Z,-1.88
2023-01-17T01:19:38.485Z,-1.80
2023-01-17T01:22:42.535Z,-1.80
2023-01-17T01:25:46.577Z,-1.84
2023-01-17T01:28:50.290Z,-1.87
2023-01-17T01:31:54.162Z,-1.86
2023-01-17T01:34:39.341Z,-1.89
2023-01-17T01:37:24.634Z,-1.86
2023-01-17T01:40:10.194Z,-1.87
2023-01-17T01:42:57.968Z,-1.93
2023-01-17T01:45:48.745Z,-1.91
2023-01-17T01:48:38.293Z,-2.05
2023-01-17T01:51:31.435Z,-1.87
2023-01-17T01:54:21.566Z,-1.93
2023-01-17T01:57:09.670Z,-1.90
2023-01-17T01:59:58.932Z,-1.95
2023-01-17T02:02:48.505Z,-1.96
2023-01-17T02:05:34.742Z,-2.01
2023-01-17T02:08:22.807Z,-2.02
2023-01-17T02:11:08.111Z,-2.07
2023-01-17T02:13:53.308Z,-2.20
2023-01-17T02:16:50.529Z,-2.08
2023-01-17T02:19:53.910Z,-2.12
2023-01-17T02:22:50.967Z,-2.14
2023-01-17T02:26:17.589Z,-2.14
2023-01-17T02:29:11.623Z,-2.12
2023-01-17T02:32:31.831Z,-2.16
2023-01-17T02:35:28.100Z,-2.16
2023-01-17T02:38:36.781Z,-2.17
2023-01-17T02:41:31.054Z,-2.17
2023-01-17T02:44:19.121Z,-2.20
2023-01-17T02:47:21.413Z,-2.17
2023-01-17T02:50:13.736Z,-2.17
2023-01-17T02:53:26.001Z,-2.10
2023-01-17T02:56:45.578Z,-2.31
2023-01-17T02:59:46.078Z,-2.18
2023-01-17T03:02:57.258Z,-2.30
2023-01-17T03:05:54.350Z,-2.48
2023-01-17T03:08:46.101Z,-2.55
2023-01-17T03:11:31.483Z,-2.49
2023-01-17T03:14:16.797Z,-2.46
2023-01-17T03:17:01.798Z,-2.47
2023-01-17T03:19:46.972Z,-2.46
2023-01-17T03:22:32.071Z,-2.61
2023-01-17T03:25:17.573Z,-2.57
2023-01-17T03:28:02.956Z,-2.62
2023-01-17T03:30:47.890Z,-2.71
2023-01-17T03:33:33.379Z,-2.75
2023-01-17T03:36:20.223Z,-2.67
2023-01-17T03:39:05.385Z,-2.66
2023-01-17T03:41:50.828Z,-2.66
2023-01-17T03:44:36.062Z,-2.66
2023-01-17T03:47:21.389Z,-2.73
2023-01-17T03:50:06.343Z,-2.67
2023-01-17T03:52:51.897Z,-2.75
2023-01-17T03:55:37.013Z,-2.69
2023-01-17T03:58:22.013Z,-2.80
2023-01-17T04:01:07.481Z,-2.78
2023-01-17T04:03:52.611Z,-2.94
2023-01-17T04:06:38.067Z,-2.81
2023-01-17T04:09:23.275Z,-2.83
2023-01-17T04:12:09.477Z,-2.93
2023-01-17T04:14:54.797Z,-3.04
2023-01-17T04:17:39.942Z,-2.99
2023-01-17T04:20:32.852Z,-2.87
2023-01-17T04:23:18.678Z,-2.95
2023-01-17T04:26:04.045Z,-2.96
2023-01-17T04:28:49.574Z,-3.17
2023-01-17T04:31:34.763Z,-3.09
2023-01-17T04:34:19.875Z,-2.91
2023-01-17T04:37:05.159Z,-2.96
2023-01-17T04:39:50.450Z,-3.15
2023-01-17T04:42:35.595Z,-3.10
2023-01-17T04:45:20.621Z,-3.08
2023-01-17T04:48:06.452Z,-3.34
2023-01-17T04:50:51.718Z,-3.10
2023-01-17T04:53:40.127Z,-3.17
2023-01-17T04:56:25.368Z,-3.19
2023-01-17T04:59:10.448Z,-3.24
2023-01-17T05:01:55.537Z,-3.29
2023-01-17T05:04:40.764Z,-3.35
2023-01-17T05:07:25.648Z,-3.32
2023-01-17T05:10:11.183Z,-3.31
2023-01-17T05:12:57.847Z,-3.32
2023-01-17T05:15:43.290Z,-3.31
2023-01-17T05:18:28.547Z,-3.30
2023-01-17T05:21:13.628Z,-3.34
2023-01-17T05:23:58.630Z,-3.42
2023-01-17T05:26:43.789Z,-3.45
2023-01-17T05:29:30.288Z,-3.35
2023-01-17T05:32:15.483Z,-3.47
2023-01-17T05:35:02.489Z,-3.35
2023-01-17T05:37:49.526Z,-3.44
2023-01-17T05:40:34.698Z,-3.50
2023-01-17T05:43:21.996Z,-3.44
2023-01-17T05:46:07.639Z,-3.56
2023-01-17T05:48:52.659Z,-3.45
2023-01-17T05:51:39.530Z,-3.42
2023-01-17T05:54:24.638Z,-3.50
2023-01-17T05:57:09.875Z,-3.54
2023-01-17T05:59:54.828Z,-3.41
2023-01-17T06:02:40.355Z,-3.34
2023-01-17T06:05:26.792Z,-3.34
2023-01-17T06:08:11.817Z,-3.51
2023-01-17T06:10:59.156Z,-3.72
2023-01-17T06:13:44.703Z,-3.57
2023-01-17T06:16:30.033Z,-3.63
2023-01-17T06:19:15.161Z,-3.69
2023-01-17T06:22:00.298Z,-3.78
2023-01-17T06:24:45.488Z,-3.76
2023-01-17T06:27:30.769Z,-3.77
2023-01-17T06:30:16.264Z,-3.78
2023-01-17T06:33:01.859Z,-3.83
2023-01-17T06:35:51.528Z,-3.80
2023-01-17T06:38:37.095Z,-3.89
2023-01-17T06:41:23.288Z,-3.85
2023-01-17T06:44:09.882Z,-3.81
2023-01-17T06:46:55.254Z,-3.77
2023-01-17T06:49:40.446Z,-3.80
2023-01-17T06:52:25.400Z,-3.90
2023-01-17T06:55:10.606Z,-3.94
2023-01-17T06:57:57.721Z,-4.02
2023-01-17T07:00:42.588Z,-3.90
2023-01-17T07:03:27.650Z,-3.81
2023-01-17T07:06:12.814Z,-3.88
2023-01-17T07:08:59.006Z,-3.95
2023-01-17T07:11:45.298Z,-3.96
2023-01-17T07:14:30.928Z,-4.02
2023-01-17T07:17:15.973Z,-3.97
2023-01-17T07:20:01.523Z,-3.92
2023-01-17T07:22:46.938Z,-3.96
2023-01-17T07:25:32.433Z,-4.02
2023-01-17T07:28:17.586Z,-3.99
2023-01-17T07:31:08.005Z,-4.01
2023-01-17T07:33:53.288Z,-4.06
2023-01-17T07:36:38.618Z,-4.10
2023-01-17T07:39:23.826Z,-4.10
2023-01-17T07:42:09.310Z,-4.21
2023-01-17T07:44:54.470Z,-4.06
2023-01-17T07:47:39.869Z,-4.12
2023-01-17T07:50:24.814Z,-4.14
2023-01-17T07:53:10.426Z,-4.14
2023-01-17T07:55:55.905Z,-4.16
2023-01-17T07:58:40.997Z,-4.36
2023-01-17T08:01:27.228Z,-4.24
2023-01-17T08:04:14.044Z,-4.23
2023-01-17T08:07:00.522Z,-4.27
2023-01-17T08:09:49.588Z,-4.31
2023-01-17T08:12:35.961Z,-4.41
2023-01-17T08:15:20.999Z,-4.26
2023-01-17T08:18:05.991Z,-4.20
2023-01-17T08:20:50.995Z,-4.20
2023-01-17T08:23:36.024Z,-4.21
2023-01-17T08:26:22.390Z,-4.28
2023-01-17T08:29:08.223Z,-4.11
2023-01-17T08:31:54.039Z,-4.10
2023-01-17T08:34:39.114Z,-3.99
2023-01-17T08:37:24.451Z,-3.94
2023-01-17T08:40:11.039Z,-3.92
2023-01-17T08:42:58.130Z,-3.93
2023-01-17T08:45:48.212Z,-4.13
2023-01-17T08:48:33.072Z,-3.90
2023-01-17T08:51:17.967Z,-3.89
2023-01-17T08:54:02.990Z,-3.88
2023-01-17T08:56:48.485Z,-3.87
2023-01-17T08:59:33.609Z,-3.83
2023-01-17T09:02:19.711Z,-3.79
2023-01-17T09:05:05.081Z,-3.73
2023-01-17T09:07:50.020Z,-3.88
2023-01-17T09:10:35.105Z,-3.47
2023-01-17T09:13:21.182Z,-3.38
2023-01-17T09:16:08.523Z,-3.49
2023-01-17T09:18:55.936Z,-3.34
2023-01-17T09:21:41.396Z,-3.21
2023-01-17T09:24:26.287Z,-3.16
2023-01-17T09:27:11.585Z,-3.13
2023-01-17T09:29:56.749Z,-3.17
2023-01-17T09:32:41.930Z,-3.18
2023-01-17T09:35:27.246Z,-3.31
2023-01-17T09:38:13.122Z,-3.16
2023-01-17T09:40:58.501Z,-3.10
2023-01-17T09:43:50.845Z,-2.98
2023-01-17T09:46:46.198Z,-2.88
2023-01-17T09:49:46.685Z,-2.79
2023-01-17T09:52:33.277Z,-2.72
2023-01-17T09:55:19.764Z,-0.06
2023-01-17T09:58:11.277Z,0.84
2023-01-17T10:00:56.533Z,-0.45
2023-01-17T10:04:02.451Z,-1.35
2023-01-17T10:07:11.264Z,-1.64
2023-01-17T10:10:15.324Z,-1.86
2023-01-17T10:13:13.689Z,-1.91
2023-01-17T10:16:05.118Z,-1.87
2023-01-17T10:19:12.743Z,-1.86
2023-01-17T10:22:25.800Z,-1.76
2023-01-17T10:25:39.027Z,-1.78
2023-01-17T10:28:36.157Z,-1.77
2023-01-17T10:31:27.675Z,-1.78
2023-01-17T10:34:18.927Z,-1.73
2023-01-17T10:37:47.851Z,-1.66
2023-01-17T10:40:51.129Z,-1.52
2023-01-17T10:43:44.237Z,-1.47
2023-01-17T10:46:47.240Z,-1.42
2023-01-17T10:49:32.692Z,-1.48
2023-01-17T10:52:39.778Z,-1.31
2023-01-17T10:55:40.287Z,-1.18
2023-01-17T10:58:25.608Z,-1.07
2023-01-17T11:01:18.865Z,-1.06
2023-01-17T11:04:11.039Z,-1.11
2023-01-17T11:07:17.699Z,-1.11
2023-01-17T11:10:03.003Z,-1.04
2023-01-17T11:12:48.130Z,-1.11
2023-01-17T11:15:39.459Z,-0.93
2023-01-17T11:18:28.836Z,-0.80
2023-01-17T11:21:21.376Z,-0.67
2023-01-17T11:24:12.231Z,-0.76
2023-01-17T11:26:58.218Z,-0.64
2023-01-17T11:29:43.185Z,-0.53
2023-01-17T11:32:33.621Z,-0.49
2023-01-17T11:35:25.460Z,-0.55
2023-01-17T11:38:21.895Z,-0.54
2023-01-17T11:41:21.794Z,-0.53
2023-01-17T11:44:30.380Z,-0.51
2023-01-17T11:47:19.002Z,-0.39
2023-01-17T11:50:23.644Z,-0.36
2023-01-17T11:53:33.539Z,-0.37
2023-01-17T11:56:33.060Z,-0.33
2023-01-17T11:59:30.012Z,-0.30
2023-01-17T12:02:37.023Z,-0.10
2023-01-17T12:05:48.145Z,0.06
2023-01-17T12:08:55.625Z,0.06
2023-01-17T12:12:10.661Z,0.10
2023-01-17T12:15:04.896Z,-0.16
2023-01-17T12:18:15.950Z,0.16
2023-01-17T12:21:17.370Z,0.22
2023-01-17T12:24:33.167Z,0.28
2023-01-17T12:27:24.217Z,0.33
2023-01-17T12:30:18.235Z,0.33
2023-01-17T12:33:17.952Z,0.37
2023-01-17T12:36:33.112Z,0.38
2023-01-17T12:39:24.683Z,0.29
2023-01-17T12:42:20.117Z,0.46
2023-01-17T12:45:09.727Z,0.54
2023-01-17T12:48:01.372Z,0.63
2023-01-17T12:51:00.182Z,0.65
2023-01-17T12:54:12.143Z,0.72
2023-01-17T12:57:03.748Z,0.71
2023-01-17T13:00:12.636Z,0.78
2023-01-17T13:03:15.704Z,0.73
2023-01-17T13:06:02.725Z,0.67
2023-01-17T13:08:54.035Z,0.69
2023-01-17T13:11:49.754Z,0.59
2023-01-17T13:14:35.846Z,0.65
2023-01-17T13:17:33.374Z,0.62
2023-01-17T13:20:59.320Z,0.74
2023-01-17T13:24:02.710Z,0.79
2023-01-17T13:26:50.822Z,0.86
2023-01-17T13:29:40.995Z,0.87
2023-01-17T13:32:46.290Z,0.82
2023-01-17T13:35:42.736Z,0.83
2023-01-17T13:38:37.032Z,0.82
2023-01-17T13:41:34.609Z,0.83
2023-01-17T13:44:23.001Z,0.61
2023-01-17T13:47:17.451Z,0.80
2023-01-17T13:50:02.342Z,0.68
2023-01-17T13:52:47.291Z,0.76
2023-01-17T13:55:53.286Z,0.72
2023-01-17T13:58:51.705Z,0.77
2023-01-17T14:01:46.111Z,0.72
2023-01-17T14:05:08.953Z,0.78
2023-01-17T14:07:55.676Z,0.85
2023-01-17T14:10:49.972Z,0.92
2023-01-17T14:13:37.561Z,0.97
2023-01-17T14:16:22.465Z,0.93
2023-01-17T14:19:25.724Z,0.92
2023-01-17T14:22:31.384Z,0.90
2023-01-17T14:25:20.532Z,0.84
2023-01-17T14:28:30.004Z,0.85
2023-01-17T14:31:16.749Z,0.72
2023-01-17T14:34:13.037Z,0.84
2023-01-17T14:37:20.323Z,0.79
2023-01-17T14:40:20.304Z,0.80
2023-01-17T14:43:40.224Z,0.77
2023-01-17T14:46:32.231Z,0.79
2023-01-17T14:49:24.157Z,0.81
2023-01-17T14:52:18.132Z,1.01
2023-01-17T14:55:15.825Z,0.95
2023-01-17T14:58:01.156Z,1.00
2023-01-17T15:00:49.714Z,0.78
2023-01-17T15:03:43.293Z,0.84
2023-01-17T15:06:40.786Z,0.82
2023-01-17T15:09:29.431Z,0.87
2023-01-17T15:12:14.724Z,0.80
2023-01-17T15:15:00.827Z,0.73
2023-01-17T15:17:45.719Z,0.74
2023-01-17T15:20:31.123Z,0.72
2023-01-17T15:23:20.200Z,0.60
2023-01-17T15:26:11.047Z,0.70
2023-01-17T15:29:04.652Z,0.62
2023-01-17T15:31:55.517Z,0.64
2023-01-17T15:34:44.802Z,0.59
2023-01-17T15:37:33.241Z,0.63
2023-01-17T15:40:23.953Z,0.60
2023-01-17T15:43:20.083Z,0.54
2023-01-17T15:46:05.651Z,0.66
2023-01-17T15:48:51.670Z,0.65
2023-01-17T15:51:38.815Z,0.60
2023-01-17T15:54:47.923Z,0.68
2023-01-17T15:57:39.006Z,0.75
2023-01-17T16:00:38.263Z,0.73
2023-01-17T16:03:26.369Z,0.70
2023-01-17T16:06:29.709Z,0.76
2023-01-17T16:09:24.787Z,0.65
2023-01-17T16:12:09.827Z,0.60
2023-01-17T16:15:11.149Z,0.54
2023-01-17T16:18:00.818Z,0.44
2023-01-17T16:20:58.862Z,0.51
2023-01-17T16:23:46.838Z,0.51
2023-01-17T16:26:31.752Z,0.46
2023-01-17T16:29:16.876Z,0.39
2023-01-17T16:32:08.604Z,0.33
2023-01-17T16:34:53.833Z,0.31
2023-01-17T16:37:39.181Z,0.27
2023-01-17T16:40:27.692Z,0.39
2023-01-17T16:43:14.535Z,0.49
2023-01-17T16:46:05.892Z,0.40
2023-01-17T16:48:51.861Z,0.33
2023-01-17T16:51:37.291Z,0.21
2023-01-17T16:54:22.931Z,0.14
2023-01-17T16:57:07.994Z,0.04
2023-01-17T16:59:53.183Z,-0.04
2023-01-17T17:02:39.451Z,0.16
2023-01-17T17:05:25.978Z,0.20
2023-01-17T17:08:11.407Z,0.22
2023-01-17T17:11:17.344Z,0.14
2023-01-17T17:14:02.721Z,0.20
2023-01-17T17:16:51.626Z,0.07
2023-01-17T17:19:36.597Z,-0.01
2023-01-17T17:22:21.527Z,-0.01
2023-01-17T17:25:07.152Z,-0.05
2023-01-17T17:27:52.874Z,-0.17
2023-01-17T17:30:38.305Z,-0.16
2023-01-17T17:33:23.601Z,-0.12
2023-01-17T17:36:12.302Z,-0.01
2023-01-17T17:38:58.111Z,0.02
2023-01-17T17:41:44.577Z,0.01
2023-01-17T17:44:29.988Z,-0.05
2023-01-17T17:47:16.106Z,-0.18
2023-01-17T17:50:01.459Z,-0.20
2023-01-17T17:52:48.295Z,-0.17
2023-01-17T17:55:35.156Z,-0.31
2023-01-17T17:58:20.864Z,-0.32
2023-01-17T18:01:06.844Z,-0.40
2023-01-17T18:03:53.838Z,-0.41
2023-01-17T18:06:40.276Z,-0.53
2023-01-17T18:09:25.455Z,-0.46
2023-01-17T18:12:10.517Z,-0.52
2023-01-17T18:14:55.773Z,-0.47
2023-01-17T18:17:40.703Z,-0.51
2023-01-17T18:20:26.630Z,-0.50
2023-01-17T18:23:11.529Z,-0.51
2023-01-17T18:25:56.857Z,-0.63
2023-01-17T18:28:41.979Z,-0.52
2023-01-17T18:31:28.744Z,-0.47
2023-01-17T18:34:15.899Z,-0.42
2023-01-17T18:37:01.199Z,-0.47
2023-01-17T18:39:46.536Z,-0.53
2023-01-17T18:42:31.694Z,-0.66
2023-01-17T18:45:17.099Z,-0.58
2023-01-17T18:48:02.605Z,-0.68
2023-01-17T18:50:58.691Z,-0.62
2023-01-17T18:53:45.071Z,-0.74
2023-01-17T18:56:36.408Z,-0.64
2023-01-17T18:59:23.333Z,-0.67
2023-01-17T19:02:09.409Z,-0.67
2023-01-17T19:04:54.324Z,-0.67
2023-01-17T19:07:39.470Z,-0.64
2023-01-17T19:10:25.841Z,-0.59
2023-01-17T19:13:11.418Z,-0.58
2023-01-17T19:16:00.127Z,-0.59
2023-01-17T19:18:44.978Z,-0.60
2023-01-17T19:21:30.312Z,-0.57
2023-01-17T19:24:15.680Z,-0.59
2023-01-17T19:27:02.562Z,-0.58
2023-01-17T19:29:47.708Z,-0.62
2023-01-17T19:32:32.720Z,-0.61
2023-01-17T19:35:18.662Z,-0.65
2023-01-17T19:38:04.011Z,-0.64
2023-01-17T19:40:48.887Z,-0.64
2023-01-17T19:43:33.694Z,-0.65
2023-01-17T19:46:19.574Z,-0.67
2023-01-17T19:49:06.883Z,-0.73
2023-01-17T19:51:52.195Z,-0.87
2023-01-17T19:54:37.351Z,-0.74
2023-01-17T19:57:24.219Z,-0.74
2023-01-17T20:00:13.170Z,-0.74
2023-01-17T20:02:58.312Z,-0.71
2023-01-17T20:05:44.874Z,-0.68
2023-01-17T20:08:29.902Z,-0.77
2023-01-17T20:11:18.518Z,-1.01
2023-01-17T20:14:07.632Z,-0.83
2023-01-17T20:16:53.602Z,-1.02
2023-01-17T20:19:38.438Z,-1.02
2023-01-17T20:22:23.435Z,-0.93
2023-01-17T20:25:09.511Z,-0.94
2023-01-17T20:27:55.398Z,-1.09
2023-01-17T20:30:40.765Z,-1.05
2023-01-17T20:33:27.110Z,-1.00
2023-01-17T20:36:14.864Z,-1.06
2023-01-17T20:39:03.863Z,-1.04
2023-01-17T20:41:51.384Z,-1.00
2023-01-17T20:44:37.417Z,-1.15
2023-01-17T20:47:24.258Z,-1.07
2023-01-17T20:50:10.088Z,-1.13
2023-01-17T20:52:55.048Z,-1.06
2023-01-17T20:55:40.325Z,-1.09
2023-01-17T20:58:25.410Z,-1.03
2023-01-17T21:01:13.605Z,-1.07
2023-01-17T21:03:59.034Z,-1.10
2023-01-17T21:06:44.367Z,-1.22
2023-01-17T21:09:29.453Z,-1.12
2023-01-17T21:12:16.004Z,-1.32
2023-01-17T21:15:01.358Z,-1.14
2023-01-17T21:17:46.418Z,-1.14
2023-01-17T21:20:34.640Z,-1.19
2023-01-17T21:23:20.186Z,-1.18
2023-01-17T21:26:07.075Z,-1.21
2023-01-17T21:28:52.517Z,-1.26
2023-01-17T21:31:40.203Z,-1.24
2023-01-17T21:34:25.585Z,-1.29
2023-01-17T21:37:10.720Z,-1.39
2023-01-17T21:39:56.917Z,-1.46
2023-01-17T21:42:41.923Z,-1.58
2023-01-17T21:45:31.885Z,-1.53
2023-01-17T21:48:16.843Z,-1.56
2023-01-17T21:51:06.071Z,-1.56
2023-01-17T21:53:51.295Z,-1.70
2023-01-17T21:56:55.153Z,-1.62
2023-01-17T21:59:40.542Z,-1.66
2023-01-17T22:02:25.588Z,-1.67
2023-01-17T22:05:11.067Z,-1.81
2023-01-17T22:08:11.202Z,-1.62
2023-01-17T22:10:56.248Z,-1.56
2023-01-17T22:13:43.398Z,-1.50
2023-01-17T22:16:28.490Z,-1.57
2023-01-17T22:19:13.677Z,-1.68
2023-01-17T22:21:58.630Z,-1.78
2023-01-17T22:24:43.621Z,-1.82
2023-01-17T22:27:29.244Z,-1.86
2023-01-17T22:30:14.582Z,-1.90
2023-01-17T22:32:59.709Z,-2.08
2023-01-17T22:35:44.717Z,-1.95
2023-01-17T22:38:30.405Z,-2.01
2023-01-17T22:41:19.911Z,-2.07
2023-01-17T22:44:08.459Z,-2.06
2023-01-17T22:46:53.704Z,-2.24
2023-01-17T22:49:38.707Z,-2.24
2023-01-17T22:52:23.710Z,-2.16
2023-01-17T22:55:09.213Z,-2.17
2023-01-17T22:57:54.196Z,-2.42
2023-01-17T23:00:40.239Z,-2.20
2023-01-17T23:03:25.388Z,-2.15
2023-01-17T23:06:12.017Z,-2.17
2023-01-17T23:09:00.877Z,-2.19
2023-01-17T23:11:52.687Z,-2.18
2023-01-17T23:14:56.206Z,-2.21
2023-01-17T23:17:59.998Z,-2.25
2023-01-17T23:20:45.273Z,-2.25
2023-01-17T23:23:31.908Z,-2.32
2023-01-17T23:26:17.225Z,-2.31
2023-01-17T23:29:02.594Z,-2.33
2023-01-17T23:31:47.843Z,-2.36
2023-01-17T23:34:33.117Z,-2.33
2023-01-17T23:37:18.291Z,-2.37
2023-01-17T23:40:03.758Z,-2.30
2023-01-17T23:43:07.521Z,-2.29
2023-01-17T23:45:54.294Z,-2.38
2023-01-17T23:48:39.496Z,-2.45
2023-01-17T23:51:24.877Z,-2.59
2023-01-17T23:54:10.154Z,-2.66
2023-01-17T23:56:55.476Z,-2.60
2023-01-17T23:59:40.389Z,-2.55
